createdAt,value
2023-05-19T00:08:01.859Z,7.84
2023-05-19T00:18:34.623Z,7.62
2023-05-19T00:21:20.612Z,7.53
2023-05-19T00:27:43.954Z,7.40
2023-05-19T00:30:34.709Z,7.41
2023-05-19T00:33:24.062Z,7.31
2023-05-19T00:35:51.368Z,7.29
2023-05-19T00:38:18.082Z,7.19
2023-05-19T00:40:45.499Z,7.22
2023-05-19T00:43:12.539Z,7.07
2023-05-19T00:45:39.278Z,6.97
2023-05-19T00:48:05.915Z,6.85
2023-05-19T00:50:33.443Z,6.82
2023-05-19T00:53:00.268Z,6.80
2023-05-19T00:55:28.893Z,6.72
2023-05-19T00:57:58.788Z,6.66
2023-05-19T01:00:25.590Z,6.59
2023-05-19T01:02:52.475Z,6.52
2023-05-19T01:05:19.343Z,6.52
2023-05-19T01:07:47.194Z,6.38
2023-05-19T01:10:13.877Z,6.23
2023-05-19T01:12:40.827Z,6.32
2023-05-19T01:15:08.065Z,6.38
2023-05-19T01:18:14.508Z,6.27
2023-05-19T01:20:52.527Z,6.21
2023-05-19T01:23:32.063Z,6.24
2023-05-19T01:26:07.719Z,6.41
2023-05-19T01:28:58.674Z,6.37
2023-05-19T01:31:25.822Z,6.22
2023-05-19T01:33:53.991Z,6.19
2023-05-19T01:36:22.926Z,6.26
2023-05-19T01:38:52.627Z,6.27
2023-05-19T01:41:21.861Z,6.24
2023-05-19T01:43:49.152Z,6.32
2023-05-19T01:46:16.289Z,6.42
2023-05-19T01:48:44.727Z,6.40
2023-05-19T01:51:11.633Z,6.45
2023-05-19T01:53:38.331Z,6.60
2023-05-19T01:56:06.058Z,6.42
2023-05-19T01:58:53.515Z,6.46
2023-05-19T02:01:41.995Z,6.43
2023-05-19T02:04:14.774Z,6.42
2023-05-19T02:07:11.795Z,6.52
2023-05-19T02:09:40.756Z,6.42
2023-05-19T02:12:27.949Z,6.51
2023-05-19T02:15:16.698Z,6.47
2023-05-19T02:17:48.433Z,6.53
2023-05-19T02:20:15.660Z,6.55
2023-05-19T02:22:42.732Z,6.59
2023-05-19T02:25:09.872Z,6.52
2023-05-19T02:27:37.751Z,6.51
2023-05-19T02:30:05.360Z,6.57
2023-05-19T02:32:32.857Z,6.58
2023-05-19T02:34:59.977Z,6.61
2023-05-19T02:37:28.597Z,6.60
2023-05-19T02:39:55.753Z,6.62
2023-05-19T02:42:22.458Z,6.69
2023-05-19T02:44:49.275Z,6.64
2023-05-19T02:47:16.044Z,6.60
2023-05-19T02:49:44.113Z,6.63
2023-05-19T02:52:12.137Z,6.60
2023-05-19T02:54:38.925Z,6.65
2023-05-19T02:57:05.691Z,6.50
2023-05-19T02:59:32.354Z,6.52
2023-05-19T03:02:02.710Z,6.51
2023-05-19T03:04:29.941Z,6.46
2023-05-19T03:06:57.701Z,6.46
2023-05-19T03:09:24.503Z,6.37
2023-05-19T03:11:51.193Z,6.30
2023-05-19T03:14:18.620Z,6.26
2023-05-19T03:16:45.584Z,6.24
2023-05-19T03:19:12.745Z,6.18
2023-05-19T03:21:39.470Z,6.01
2023-05-19T03:24:06.746Z,6.08
2023-05-19T03:26:33.516Z,6.06
2023-05-19T03:29:00.186Z,5.96
2023-05-19T03:31:26.949Z,5.83
2023-05-19T03:33:53.689Z,5.88
2023-05-19T03:36:22.089Z,5.86
2023-05-19T03:38:48.862Z,5.83
2023-05-19T03:41:15.637Z,5.82
2023-05-19T03:43:42.391Z,5.84
2023-05-19T03:46:09.081Z,5.79
2023-05-19T03:48:35.808Z,5.68
2023-05-19T03:51:02.456Z,5.67
2023-05-19T03:53:30.359Z,5.73
2023-05-19T03:55:57.033Z,5.78
2023-05-19T03:58:24.348Z,5.71
2023-05-19T04:00:51.085Z,5.65
2023-05-19T04:03:17.882Z,5.64
2023-05-19T04:05:44.711Z,5.71
2023-05-19T04:08:11.381Z,5.82
2023-05-19T04:10:38.136Z,5.74
2023-05-19T04:13:04.873Z,5.88
2023-05-19T04:15:33.013Z,5.90
2023-05-19T04:17:59.760Z,6.00
2023-05-19T04:20:26.505Z,6.06
2023-05-19T04:22:53.204Z,6.15
2023-05-19T04:25:20.353Z,6.18
2023-05-19T04:27:48.364Z,6.26
2023-05-19T04:30:22.057Z,6.33
2023-05-19T04:32:51.732Z,6.43
2023-05-19T04:35:19.425Z,6.60
2023-05-19T04:37:48.453Z,6.75
2023-05-19T04:40:15.955Z,6.74
2023-05-19T04:42:43.101Z,6.89
2023-05-19T04:45:10.428Z,6.92
2023-05-19T04:47:38.119Z,7.01
2023-05-19T04:50:05.306Z,7.14
2023-05-19T04:52:32.172Z,7.16
2023-05-19T04:54:58.864Z,7.29
2023-05-19T04:57:25.665Z,7.44
2023-05-19T04:59:53.163Z,7.57
2023-05-19T05:02:20.121Z,7.79
2023-05-19T05:04:46.999Z,7.79
2023-05-19T05:07:13.685Z,8.00
2023-05-19T05:09:43.181Z,7.98
2023-05-19T05:12:10.708Z,8.13
2023-05-19T05:14:37.578Z,8.13
2023-05-19T05:17:04.412Z,8.30
2023-05-19T05:19:31.451Z,8.41
2023-05-19T05:21:58.406Z,8.57
2023-05-19T05:24:25.320Z,8.65
2023-05-19T05:26:52.179Z,8.76
2023-05-19T05:29:19.882Z,8.96
2023-05-19T05:31:46.504Z,9.15
2023-05-19T05:34:13.461Z,9.38
2023-05-19T05:36:40.114Z,9.72
2023-05-19T05:39:06.790Z,10.15
2023-05-19T05:41:35.591Z,10.40
2023-05-19T05:44:02.594Z,10.50
2023-05-19T05:46:29.336Z,10.48
2023-05-19T05:48:56.416Z,10.40
2023-05-19T05:51:23.504Z,10.23
2023-05-19T05:53:52.931Z,10.62
2023-05-19T05:56:22.165Z,11.28
2023-05-19T05:58:49.636Z,12.26
2023-05-19T06:01:18.007Z,13.15
2023-05-19T06:03:45.754Z,13.09
2023-05-19T06:06:13.294Z,14.31
2023-05-19T06:08:40.226Z,14.90
2023-05-19T06:11:09.774Z,14.84
2023-05-19T06:13:37.083Z,14.79
2023-05-19T06:16:16.286Z,14.82
2023-05-19T06:18:46.617Z,14.83
2023-05-19T06:21:27.522Z,14.99
2023-05-19T06:23:54.340Z,14.76
2023-05-19T06:26:24.681Z,14.78
2023-05-19T06:28:52.513Z,14.85
2023-05-19T06:31:26.316Z,14.86
2023-05-19T06:34:01.585Z,15.07
2023-05-19T06:36:41.657Z,15.05
2023-05-19T06:39:09.944Z,14.97
2023-05-19T06:41:40.538Z,14.78
2023-05-19T06:44:09.307Z,14.28
2023-05-19T06:46:37.184Z,14.24
2023-05-19T06:49:04.484Z,14.29
2023-05-19T06:51:54.967Z,14.39
2023-05-19T06:54:23.284Z,14.29
2023-05-19T07:10:24.388Z,14.88
2023-05-19T07:12:51.082Z,15.21
2023-05-19T07:15:17.756Z,15.09
2023-05-19T07:17:44.522Z,15.46
2023-05-19T07:20:11.578Z,15.85
2023-05-19T07:22:39.914Z,16.01
2023-05-19T07:25:10.055Z,16.14
2023-05-19T07:27:37.058Z,16.36
2023-05-19T07:30:04.165Z,16.57
2023-05-19T07:32:30.950Z,16.69
2023-05-19T07:34:57.741Z,16.56
2023-05-19T07:37:26.977Z,16.56
2023-05-19T07:39:54.600Z,16.46
2023-05-19T07:42:39.340Z,16.53
2023-05-19T07:45:09.168Z,16.84
2023-05-19T07:47:45.191Z,17.14
2023-05-19T07:50:58.774Z,17.49
2023-05-19T07:53:32.782Z,17.75
2023-05-19T07:56:27.940Z,17.75
2023-05-19T07:59:09.075Z,17.93
2023-05-19T08:01:35.782Z,18.09
2023-05-19T08:04:02.907Z,18.32
2023-05-19T08:06:30.143Z,18.44
2023-05-19T08:08:56.840Z,18.38
2023-05-19T08:11:26.420Z,18.47
2023-05-19T08:13:53.219Z,18.51
2023-05-19T08:16:20.204Z,18.26
2023-05-19T08:19:10.995Z,18.34
2023-05-19T08:21:37.736Z,18.24
2023-05-19T08:24:04.504Z,18.21
2023-05-19T08:26:31.181Z,18.59
2023-05-19T08:28:57.915Z,18.46
2023-05-19T08:31:25.113Z,18.60
2023-05-19T08:33:52.349Z,18.57
2023-05-19T08:36:19.399Z,18.71
2023-05-19T08:38:46.096Z,18.92
2023-05-19T08:41:14.243Z,18.69
2023-05-19T08:46:44.830Z,19.09
2023-05-19T08:49:14.272Z,19.04
2023-05-19T08:52:16.278Z,19.09
2023-05-19T08:54:53.565Z,18.57
2023-05-19T08:58:20.249Z,18.93
2023-05-19T09:01:01.214Z,18.31
2023-05-19T09:03:53.281Z,18.55
2023-05-19T09:06:21.618Z,18.64
2023-05-19T09:09:03.216Z,17.75
2023-05-19T09:11:41.541Z,18.64
2023-05-19T09:14:39.643Z,19.20
2023-05-19T09:17:12.815Z,18.64
2023-05-19T09:20:15.282Z,18.63
2023-05-19T09:22:45.641Z,18.56
2023-05-19T09:25:22.941Z,18.40
2023-05-19T09:28:03.517Z,18.08
2023-05-19T09:30:30.672Z,17.94
2023-05-19T09:32:57.965Z,17.98
2023-05-19T09:35:24.829Z,18.17
2023-05-19T09:37:52.012Z,18.21
2023-05-19T09:40:18.858Z,18.12
2023-05-19T09:42:46.339Z,18.27
2023-05-19T09:45:18.182Z,18.08
2023-05-19T09:47:45.402Z,18.00
2023-05-19T09:50:14.432Z,18.18
2023-05-19T09:52:45.007Z,17.93
2023-05-19T09:55:14.547Z,18.05
2023-05-19T09:57:41.565Z,18.13
2023-05-19T10:00:20.199Z,17.92
2023-05-19T10:02:51.118Z,17.89
2023-05-19T10:05:20.471Z,17.83
2023-05-19T10:07:53.492Z,18.04
2023-05-19T10:10:40.642Z,18.45
2023-05-19T10:13:07.929Z,18.27
2023-05-19T10:15:54.296Z,18.50
2023-05-19T10:18:26.824Z,18.62
2023-05-19T10:20:57.440Z,18.53
2023-05-19T10:23:25.838Z,18.15
2023-05-19T10:25:55.780Z,18.30
2023-05-19T10:28:30.353Z,18.29
2023-05-19T10:30:59.014Z,18.36
2023-05-19T10:34:06.650Z,18.29
2023-05-19T10:36:45.818Z,18.73
2023-05-19T10:39:20.018Z,18.98
2023-05-19T10:42:08.692Z,19.22
2023-05-19T10:44:54.563Z,18.88
2023-05-19T10:47:25.269Z,19.02
2023-05-19T10:49:53.974Z,19.17
2023-05-19T10:52:21.961Z,19.40
2023-05-19T10:54:49.849Z,19.53
2023-05-19T10:57:19.703Z,19.90
2023-05-19T10:59:50.371Z,20.49
2023-05-19T11:02:36.555Z,20.93
2023-05-19T11:05:13.031Z,21.02
2023-05-19T11:08:07.938Z,19.93
2023-05-19T11:10:40.347Z,19.58
2023-05-19T11:13:07.076Z,19.46
2023-05-19T11:15:39.548Z,19.47
2023-05-19T11:18:06.352Z,19.27
2023-05-19T11:20:35.064Z,19.09
2023-05-19T11:23:07.055Z,18.93
2023-05-19T11:25:51.502Z,18.81
2023-05-19T11:28:19.832Z,19.21
2023-05-19T11:30:50.640Z,19.34
2023-05-19T11:33:21.032Z,19.56
2023-05-19T11:35:51.331Z,19.36
2023-05-19T11:38:19.093Z,18.85
2023-05-19T11:40:47.297Z,18.86
2023-05-19T11:46:26.080Z,18.90
2023-05-19T11:48:56.740Z,18.83
2023-05-19T11:52:01.472Z,18.78
2023-05-19T11:54:33.204Z,18.85
2023-05-19T11:57:10.858Z,18.96
2023-05-19T11:59:43.691Z,18.72
2023-05-19T12:02:14.064Z,19.28
2023-05-19T12:04:42.871Z,19.55
2023-05-19T12:07:21.998Z,19.68
2023-05-19T12:09:51.047Z,19.62
2023-05-19T12:12:21.618Z,19.20
2023-05-19T12:14:55.732Z,18.99
2023-05-19T12:17:33.634Z,19.02
2023-05-19T12:20:01.592Z,19.06
2023-05-19T12:22:28.374Z,19.02
2023-05-19T12:24:55.186Z,19.31
2023-05-19T12:27:24.374Z,19.52
2023-05-19T12:29:52.541Z,18.97
2023-05-19T12:32:29.848Z,19.34
2023-05-19T12:35:24.515Z,19.56
2023-05-19T12:37:55.500Z,19.68
2023-05-19T12:40:22.332Z,19.52
2023-05-19T12:42:51.951Z,19.36
2023-05-19T12:45:21.302Z,19.16
2023-05-19T12:47:49.740Z,19.28
2023-05-19T12:50:16.660Z,19.26
2023-05-19T12:52:46.040Z,19.25
2023-05-19T12:55:14.070Z,19.28
2023-05-19T12:57:42.481Z,19.59
2023-05-19T13:00:31.179Z,19.75
2023-05-19T13:03:00.961Z,19.98
2023-05-19T13:05:28.936Z,20.14
2023-05-19T13:08:00.892Z,19.66
2023-05-19T13:10:37.502Z,19.41
2023-05-19T13:13:10.965Z,19.10
2023-05-19T13:15:43.083Z,19.32
2023-05-19T13:18:11.868Z,19.55
2023-05-19T13:20:40.474Z,19.69
2023-05-19T13:23:07.272Z,19.70
2023-05-19T13:25:34.458Z,19.32
2023-05-19T13:28:04.075Z,19.22
2023-05-19T13:30:34.496Z,18.93
2023-05-19T13:33:02.626Z,19.45
2023-05-19T13:35:29.497Z,19.66
2023-05-19T13:37:56.338Z,19.28
2023-05-19T13:40:24.046Z,19.10
2023-05-19T13:42:50.848Z,19.16
2023-05-19T13:45:18.426Z,19.34
2023-05-19T13:47:45.263Z,19.56
2023-05-19T13:50:12.637Z,19.77
2023-05-19T13:52:39.535Z,19.29
2023-05-19T13:55:07.492Z,19.29
2023-05-19T13:57:34.200Z,19.23
2023-05-19T14:00:03.836Z,19.40
2023-05-19T14:02:34.041Z,19.24
2023-05-19T14:05:00.935Z,19.36
2023-05-19T14:07:28.344Z,19.28
2023-05-19T14:09:55.406Z,19.25
2023-05-19T14:12:33.891Z,19.30
2023-05-19T14:15:09.013Z,19.36
2023-05-19T14:17:40.707Z,19.31
2023-05-19T14:20:08.672Z,19.28
2023-05-19T14:22:35.358Z,19.16
2023-05-19T14:25:02.353Z,19.22
2023-05-19T14:27:29.120Z,18.78
2023-05-19T14:29:55.839Z,18.80
2023-05-19T14:32:23.495Z,18.62
2023-05-19T14:34:52.878Z,18.79
2023-05-19T14:37:29.121Z,18.85
2023-05-19T14:39:57.663Z,18.90
2023-05-19T14:42:24.834Z,18.84
2023-05-19T14:44:57.972Z,18.83
2023-05-19T14:47:27.585Z,19.00
2023-05-19T14:49:54.438Z,19.05
2023-05-19T14:52:21.563Z,19.16
2023-05-19T14:54:50.692Z,19.12
2023-05-19T14:57:17.403Z,19.06
2023-05-19T14:59:44.048Z,18.78
2023-05-19T15:02:12.038Z,18.73
2023-05-19T15:04:49.727Z,18.68
2023-05-19T15:07:16.424Z,18.71
2023-05-19T15:09:43.112Z,18.31
2023-05-19T15:12:14.180Z,18.54
2023-05-19T15:14:44.160Z,18.57
2023-05-19T15:17:35.444Z,18.66
2023-05-19T15:20:06.569Z,18.46
2023-05-19T15:22:39.564Z,18.57
2023-05-19T15:25:12.938Z,18.28
2023-05-19T15:27:49.357Z,18.21
2023-05-19T15:30:17.660Z,18.14
2023-05-19T15:32:45.304Z,18.25
2023-05-19T15:35:15.063Z,17.80
2023-05-19T15:37:47.454Z,17.85
2023-05-19T15:40:46.789Z,18.19
2023-05-19T15:43:21.879Z,18.13
2023-05-19T15:45:48.605Z,17.87
2023-05-19T15:48:20.932Z,18.16
2023-05-19T15:50:47.800Z,18.25
2023-05-19T15:53:14.659Z,18.06
2023-05-19T15:55:43.449Z,18.16
2023-05-19T15:58:25.146Z,17.89
2023-05-19T16:00:53.006Z,18.09
2023-05-19T16:03:22.359Z,17.85
2023-05-19T16:05:49.315Z,18.15
2023-05-19T16:08:16.200Z,18.20
2023-05-19T16:10:45.307Z,18.27
2023-05-19T16:16:03.864Z,18.22
2023-05-19T16:18:48.919Z,18.02
2023-05-19T16:21:16.106Z,17.97
2023-05-19T16:23:45.471Z,18.02
2023-05-19T16:26:31.332Z,17.91
2023-05-19T16:28:58.047Z,17.98
2023-05-19T16:31:24.862Z,17.94
2023-05-19T16:33:53.026Z,17.85
2023-05-19T16:36:22.964Z,17.84
2023-05-19T16:38:49.729Z,17.82
2023-05-19T16:41:43.333Z,17.72
2023-05-19T16:44:14.589Z,17.54
2023-05-19T16:46:41.392Z,17.39
2023-05-19T16:49:08.012Z,17.46
2023-05-19T16:51:34.753Z,17.52
2023-05-19T16:54:04.720Z,17.49
2023-05-19T16:56:31.509Z,17.60
2023-05-19T16:59:03.763Z,17.60
2023-05-19T17:01:32.171Z,17.67
2023-05-19T17:03:58.911Z,17.20
2023-05-19T17:06:25.741Z,17.36
2023-05-19T17:08:52.604Z,17.34
2023-05-19T17:11:19.267Z,17.03
2023-05-19T17:13:46.489Z,17.08
2023-05-19T17:16:13.161Z,17.02
2023-05-19T17:18:39.987Z,16.78
2023-05-19T17:21:06.804Z,16.85
2023-05-19T17:23:33.736Z,16.78
2023-05-19T17:26:01.877Z,16.71
2023-05-19T17:28:31.863Z,16.44
2023-05-19T17:30:58.721Z,16.51
2023-05-19T17:33:28.283Z,16.43
2023-05-19T17:35:57.829Z,16.46
2023-05-19T17:38:26.593Z,16.32
2023-05-19T17:40:56.790Z,16.27
2023-05-19T17:43:23.544Z,16.39
2023-05-19T17:45:50.739Z,16.38
2023-05-19T17:48:17.582Z,16.36
2023-05-19T17:50:47.658Z,16.36
2023-05-19T17:53:17.892Z,16.32
2023-05-19T17:56:00.155Z,16.11
2023-05-19T17:58:30.612Z,16.05
2023-05-19T18:01:02.843Z,16.00
2023-05-19T18:03:29.923Z,16.00
2023-05-19T18:06:00.742Z,15.83
2023-05-19T18:08:28.313Z,15.80
2023-05-19T18:10:58.798Z,15.77
2023-05-19T18:13:26.178Z,15.86
2023-05-19T18:15:57.104Z,15.89
2023-05-19T18:18:23.861Z,15.70
2023-05-19T18:20:50.968Z,15.66
2023-05-19T18:23:22.448Z,15.49
2023-05-19T18:25:53.410Z,15.58
2023-05-19T18:28:20.501Z,15.60
2023-05-19T18:31:01.257Z,15.31
2023-05-19T18:33:30.809Z,15.26
2023-05-19T18:35:58.435Z,15.09
2023-05-19T18:38:25.174Z,14.98
2023-05-19T18:40:52.085Z,14.83
2023-05-19T18:43:19.331Z,14.84
2023-05-19T18:45:49.209Z,14.76
2023-05-19T18:48:16.160Z,14.49
2023-05-19T18:50:44.686Z,14.50
2023-05-19T18:53:12.168Z,14.27
2023-05-19T18:55:39.032Z,14.28
2023-05-19T18:58:06.442Z,14.22
2023-05-19T19:00:35.471Z,14.19
2023-05-19T19:03:02.449Z,14.05
2023-05-19T19:05:29.275Z,14.08
2023-05-19T19:07:56.201Z,13.95
2023-05-19T19:10:23.056Z,13.94
2023-05-19T19:12:49.850Z,13.89
2023-05-19T19:15:25.554Z,13.75
2023-05-19T19:18:02.321Z,13.66
2023-05-19T19:20:29.150Z,13.55
2023-05-19T19:22:56.144Z,13.42
2023-05-19T19:25:23.713Z,13.28
2023-05-19T19:27:56.248Z,13.09
2023-05-19T19:30:26.389Z,12.90
2023-05-19T19:33:00.710Z,12.75
2023-05-19T19:35:27.525Z,12.70
2023-05-19T19:37:57.066Z,12.63
2023-05-19T19:40:27.523Z,12.57
2023-05-19T19:42:54.184Z,12.53
2023-05-19T19:45:21.014Z,12.52
2023-05-19T19:47:51.887Z,12.42
2023-05-19T19:50:21.003Z,12.39
2023-05-19T19:52:47.992Z,12.27
2023-05-19T19:55:14.810Z,12.19
2023-05-19T19:57:41.587Z,12.02
2023-05-19T20:00:09.211Z,12.02
2023-05-19T20:02:45.470Z,11.91
2023-05-19T20:05:18.297Z,11.79
2023-05-19T20:07:45.006Z,11.75
2023-05-19T20:10:11.719Z,11.87
2023-05-19T20:12:38.416Z,11.87
2023-05-19T20:15:06.063Z,11.78
2023-05-19T20:17:32.988Z,11.77
2023-05-19T20:20:00.911Z,11.57
2023-05-19T20:22:27.676Z,11.56
2023-05-19T20:24:56.901Z,11.48
2023-05-19T20:27:23.551Z,11.43
2023-05-19T20:29:50.194Z,11.32
2023-05-19T20:32:17.106Z,11.33
2023-05-19T20:34:43.772Z,11.32
2023-05-19T20:37:10.794Z,11.33
2023-05-19T20:39:38.065Z,11.21
2023-05-19T20:42:04.974Z,11.20
2023-05-19T20:44:31.694Z,11.03
2023-05-19T20:47:10.564Z,10.92
2023-05-19T20:49:37.219Z,10.97
2023-05-19T20:52:04.082Z,10.90
2023-05-19T20:54:31.033Z,10.78
2023-05-19T20:56:57.666Z,10.71
2023-05-19T20:59:24.840Z,10.85
2023-05-19T21:01:56.121Z,10.74
2023-05-19T21:04:22.981Z,10.60
2023-05-19T21:06:50.044Z,10.68
2023-05-19T21:09:16.841Z,10.68
2023-05-19T21:11:43.501Z,10.67
2023-05-19T21:14:10.156Z,10.56
2023-05-19T21:16:38.775Z,10.48
2023-05-19T21:19:06.738Z,10.36
2023-05-19T21:21:33.753Z,10.36
2023-05-19T21:24:00.853Z,10.36
2023-05-19T21:26:27.650Z,10.42
2023-05-19T21:28:54.389Z,10.31
2023-05-19T21:31:21.334Z,10.27
2023-05-19T21:33:48.124Z,10.27
2023-05-19T21:36:14.806Z,10.15
2023-05-19T21:38:41.531Z,10.22
2023-05-19T21:41:08.239Z,10.19
2023-05-19T21:43:34.963Z,10.18
2023-05-19T21:46:01.770Z,10.15
2023-05-19T21:48:28.472Z,10.21
2023-05-19T21:50:55.566Z,10.20
2023-05-19T21:53:22.260Z,10.12
2023-05-19T21:55:49.022Z,10.13
2023-05-19T21:58:16.182Z,10.05
2023-05-19T22:00:43.475Z,9.94
2023-05-19T22:03:10.290Z,9.86
2023-05-19T22:05:38.305Z,9.83
2023-05-19T22:08:05.123Z,9.73
2023-05-19T22:10:32.244Z,9.75
2023-05-19T22:12:59.410Z,9.69
2023-05-19T22:15:26.731Z,9.63
2023-05-19T22:17:53.567Z,9.53
2023-05-19T22:20:20.537Z,9.50
2023-05-19T22:22:47.313Z,9.45
2023-05-19T22:25:14.018Z,9.43
2023-05-19T22:27:40.688Z,9.37
2023-05-19T22:30:08.024Z,9.35
2023-05-19T22:32:35.271Z,9.34
2023-05-19T22:35:02.092Z,9.30
2023-05-19T22:37:29.061Z,9.25
2023-05-19T22:39:55.906Z,9.29
2023-05-19T22:42:22.708Z,9.32
2023-05-19T22:44:49.622Z,9.17
2023-05-19T22:47:17.149Z,9.03
2023-05-19T22:49:44.070Z,9.14
2023-05-19T22:52:11.826Z,9.05
2023-05-19T22:54:39.061Z,8.91
2023-05-19T22:57:06.464Z,8.85
2023-05-19T22:59:33.338Z,8.90
2023-05-19T23:02:00.067Z,8.75
2023-05-19T23:04:26.876Z,8.78
2023-05-19T23:06:53.593Z,8.70
2023-05-19T23:09:20.414Z,8.67
2023-05-19T23:11:47.154Z,8.65
2023-05-19T23:14:13.958Z,8.60
2023-05-19T23:16:40.780Z,8.63
2023-05-19T23:19:07.562Z,8.59
2023-05-19T23:21:34.230Z,8.54
2023-05-19T23:24:01.047Z,8.50
2023-05-19T23:26:30.767Z,8.53
2023-05-19T23:28:57.533Z,8.54
2023-05-19T23:31:24.510Z,8.44
2023-05-19T23:33:51.309Z,8.41
2023-05-19T23:36:18.198Z,8.37
2023-05-19T23:38:45.053Z,8.30
2023-05-19T23:41:11.819Z,8.29
2023-05-19T23:43:39.038Z,8.25
2023-05-19T23:46:06.125Z,8.21
2023-05-19T23:48:33.684Z,8.16
2023-05-19T23:51:00.413Z,8.18
2023-05-19T23:53:27.118Z,8.11
2023-05-19T23:55:53.783Z,8.04
2023-05-19T23:58:20.753Z,8.03
